IK5NLA Vaiano IT current weather conditions

sailwx.info

Wind from 207 at 2 knots gusting 4

Air temperature 15.6° C
Dewpoint 14.8° C

Last reported at 2014-Oct-20 21:45 UTC.
Time now 2014-Oct-20 22:50 UTC

Location: N 43°58' E 011°06'.
View on Google Maps.

See reports from other nearby stations

  
Tides and Currents Weather Stations Pressure Air Temp Water Temp Dewpoint Dewpoint Depression Visibility Wind Speed Wind Dir Waves Ship Positions
date/time (UTC)wind fromknots sea level pressurealtimeterstation pressurevisibilityair tempwater tempwave heightnotes
2014-Oct-20 21:45 207 2 gusting 4 15.6
2014-Oct-20 21:35 233 4 gusting 5 16.1
2014-Oct-20 21:25 202 3 gusting 6 16.1
2014-Oct-20 21:15 168 2 gusting 5 16.1
2014-Oct-20 21:05 190 6 gusting 8 16.1
2014-Oct-20 20:55 310 2 gusting 10 16.1
2014-Oct-20 20:35 227 3 gusting 3 16.1
2014-Oct-20 20:25 265 2 gusting 3 16.1
2014-Oct-20 20:05 218 6 gusting 8 16.1
2014-Oct-20 19:55 199 4 gusting 4 16.1
2014-Oct-20 19:45 212 5 gusting 5 16.1
2014-Oct-20 19:35 202 8 gusting 8 16.1
2014-Oct-20 19:25 184 2 gusting 2 16.1
2014-Oct-20 19:15 194 6 gusting 6 16.7
2014-Oct-20 19:05 250 7 gusting 7 16.1
2014-Oct-20 18:55 234 3 gusting 5 16.1
2014-Oct-20 18:45 223 5 gusting 6 16.1
2014-Oct-20 18:35 200 6 gusting 6 16.1
2014-Oct-20 18:25 219 5 gusting 5 16.1
2014-Oct-20 18:15 256 1 gusting 3 16.1
2014-Oct-20 18:05 219 7 gusting 8 16.1
2014-Oct-20 17:55 211 5 gusting 6 16.1
2014-Oct-20 17:49 287 3 gusting 5 16.1
2014-Oct-20 05:35 336 2 gusting 2 14.4
2014-Oct-20 05:25 338 1 gusting 1 14.4
2014-Oct-20 05:15 009 1 gusting 1 14.4
2014-Oct-20 05:05 349 1 gusting 1 13.9
2014-Oct-20 04:55 350 0 gusting 0 13.9
2014-Oct-20 04:45 349 0 gusting 0 13.9
2014-Oct-20 04:15 348 0 gusting 0 14.4
2014-Oct-20 04:05 348 1 gusting 1 14.4
2014-Oct-20 03:55 348 2 gusting 2 15.0
2014-Oct-20 03:45 349 2 gusting 2 14.4
2014-Oct-20 03:35 349 0 gusting 1 14.4
2014-Oct-20 03:25 349 1 gusting 2 15.0
2014-Oct-20 03:15 349 2 gusting 2 15.0
2014-Oct-20 03:05 349 1 gusting 1 15.0
2014-Oct-20 02:55 349 1 gusting 1 15.0
2014-Oct-20 02:45 349 15.6
2014-Oct-20 02:35 349 1 gusting 2 15.0
2014-Oct-20 02:25 347 1 gusting 2 15.0
2014-Oct-20 02:15 348 1 gusting 1 15.0
2014-Oct-20 02:05 346 1 gusting 2 15.0
2014-Oct-20 01:55 344 2 gusting 2 15.0
2014-Oct-20 01:45 344 2 gusting 2 15.0
2014-Oct-20 01:35 345 1 gusting 1 15.0
2014-Oct-20 01:25 345 0 gusting 1 15.0
2014-Oct-20 01:15 338 1 gusting 1 15.0
2014-Oct-20 01:05 338 0 gusting 1 15.0
2014-Oct-20 00:55 338 1 gusting 1 15.0
2014-Oct-20 00:45 337 2 gusting 2 15.0
2014-Oct-20 00:35 348 2 gusting 2 15.0
2014-Oct-20 00:25 348 1 gusting 1 15.0
2014-Oct-20 00:15 331 1 gusting 2 15.6
2014-Oct-20 00:05 340 2 gusting 2 15.6
2014-Oct-19 23:55 340 2 gusting 2 15.6
2014-Oct-19 23:45 340 2 gusting 2 15.0
2014-Oct-19 23:35 338 3 gusting 3 15.6
2014-Oct-19 23:25 333 2 gusting 2 15.6
2014-Oct-19 23:15 334 2 gusting 2 15.6
2014-Oct-19 23:05 334 2 gusting 2 15.6
2014-Oct-19 22:45 333 2 gusting 2 15.6
2014-Oct-19 22:35 333 1 gusting 2 15.6
2014-Oct-19 21:55 345 2 gusting 2 16.1
2014-Oct-19 21:45 345 2 gusting 2 16.1
2014-Oct-19 21:35 345 1 gusting 1 16.7
2014-Oct-19 21:25 345 2 gusting 2 16.7
2014-Oct-19 21:15 345 1 gusting 1 16.1
2014-Oct-19 20:55 005 1 gusting 1 16.7
2014-Oct-19 20:45 005 0 gusting 0 16.7
2014-Oct-19 20:35 360 0 gusting 1 16.7
2014-Oct-19 20:25 360 16.7
2014-Oct-19 20:15 005 0 gusting 0 16.7
2014-Oct-19 19:55 022 1 gusting 2 16.7
2014-Oct-19 19:45 022 17.2
2014-Oct-19 19:35 005 0 gusting 0 17.2
2014-Oct-19 19:15 157 17.8
2014-Oct-19 19:05 250 17.8
2014-Oct-19 18:55 251 0 gusting 1 17.8
2014-Oct-19 18:45 237 1 gusting 1 17.8
2014-Oct-19 18:35 276 0 gusting 0 17.8
2014-Oct-19 18:25 276 0 gusting 0 18.3
2014-Oct-19 18:15 334 1 gusting 1 18.3
2014-Oct-19 18:05 290 18.3
2014-Oct-19 17:55 290 0 gusting 0 18.9
2014-Oct-19 17:45 296 2 gusting 2 18.9
2014-Oct-19 17:35 296 18.9
2014-Oct-19 17:25 263 0 gusting 1 18.9
2014-Oct-19 17:15 277 2 gusting 2 18.9
2014-Oct-19 17:05 281 3 gusting 3 18.9
2014-Oct-19 16:55 292 2 gusting 2 18.9
2014-Oct-19 16:45 306 3 gusting 3 18.9
2014-Oct-19 16:35 306 4 gusting 4 18.9
2014-Oct-19 16:25 268 1 gusting 1 18.9
2014-Oct-19 16:15 360 2 gusting 2 18.9
2014-Oct-19 16:05 298 1 gusting 2 18.9
2014-Oct-19 15:55 285 0 gusting 1 19.4
2014-Oct-19 15:45 283 1 gusting 1 19.4
2014-Oct-19 15:35 272 0 gusting 0 19.4
2014-Oct-19 15:25 275 1 gusting 2 20.0
2014-Oct-19 15:15 237 2 gusting 8 21.7
2014-Oct-19 13:55 257 2 gusting 2 21.7
2014-Oct-19 13:45 224 3 gusting 4 21.7
2014-Oct-19 13:35 214 5 gusting 8 21.7
2014-Oct-19 13:25 250 4 gusting 4 22.2
2014-Oct-19 13:15 213 6 gusting 6 21.7
2014-Oct-19 13:05 211 3 gusting 4 21.1
2014-Oct-19 12:55 211 5 gusting 5 21.7
2014-Oct-19 12:45 196 5 gusting 7 21.7
2014-Oct-19 12:35 222 2 gusting 2 21.1
2014-Oct-19 12:25 254 1 gusting 2 21.1
2014-Oct-19 12:16 260 3 gusting 5 21.1
2014-Oct-19 12:05 234 5 gusting 6 21.1
2014-Oct-19 11:55 199 3 gusting 6 21.1
2014-Oct-19 11:45 219 2 gusting 3 21.1
2014-Oct-19 11:35 190 6 gusting 6 21.7
2014-Oct-19 11:25 210 3 gusting 3 21.1
2014-Oct-19 11:15 259 2 gusting 2 21.7
2014-Oct-19 11:05 180 1 gusting 2 21.1
2014-Oct-19 10:55 146 2 gusting 2 21.7
2014-Oct-19 10:45 165 1 gusting 2 21.7
2014-Oct-19 10:35 150 0 gusting 0 20.6
2014-Oct-19 10:25 191 2 gusting 2 21.1
2014-Oct-19 10:05 135 3 gusting 3 21.7
2014-Oct-19 09:55 134 2 gusting 2 21.1
2014-Oct-19 09:15 084 2 gusting 3 20.0
2014-Oct-19 09:05 105 2 gusting 2 20.0
2014-Oct-19 08:55 094 2 gusting 2 20.0
2014-Oct-19 08:45 115 2 gusting 2 20.0
2014-Oct-19 08:35 109 2 gusting 3 20.0
2014-Oct-19 08:25 119 2 gusting 2 19.4
2014-Oct-19 08:15 095 2 gusting 4 19.4
2014-Oct-19 08:05 109 2 gusting 2 19.4
2014-Oct-19 07:45 128 2 gusting 2 19.4
2014-Oct-19 07:35 113 2 gusting 2 19.4
2014-Oct-19 07:25 082 1 gusting 2 18.9
2014-Oct-19 07:15 075 1 gusting 1 18.3
2014-Oct-19 07:05 071 1 gusting 1 18.3
2014-Oct-19 06:55 067 1 gusting 1 18.3
2014-Oct-19 06:45 065 1 gusting 1 18.9
2014-Oct-19 06:35 029 0 gusting 0 18.9
2014-Oct-19 06:25 360 0 gusting 1 18.3
2014-Oct-19 06:15 020 2 gusting 2 17.8
2014-Oct-19 06:05 348 3 gusting 3 17.2
2014-Oct-19 05:55 346 3 gusting 4 17.2
2014-Oct-19 05:45 355 4 gusting 4 17.2
2014-Oct-19 05:35 360 3 gusting 3 17.2
2014-Oct-19 05:25 355 2 gusting 3 17.2
2014-Oct-19 05:15 349 2 gusting 3 17.2
2014-Oct-19 05:05 355 2 gusting 3 16.7
2014-Oct-19 04:55 342 3 gusting 3 17.2
2014-Oct-19 04:45 355 3 gusting 3 17.2
2014-Oct-19 04:35 336 3 gusting 3 17.2
2014-Oct-19 04:25 340 3 gusting 3 16.7
2014-Oct-19 04:15 360 3 gusting 3 17.2
2014-Oct-19 04:05 337 2 gusting 3 17.2
2014-Oct-19 03:55 344 2 gusting 2 17.2
2014-Oct-19 03:45 337 2 gusting 3 16.7
2014-Oct-19 03:35 342 2 gusting 2 16.7
2014-Oct-19 03:25 339 2 gusting 2 16.7
2014-Oct-19 03:15 351 2 gusting 2 16.7
2014-Oct-19 03:05 346 1 gusting 2 16.7
2014-Oct-19 02:55 346 0 gusting 0 16.7
2014-Oct-19 02:45 347 2 gusting 2 16.7
2014-Oct-19 02:35 343 0 gusting 0 16.7
2014-Oct-19 02:25 342 1 gusting 1 16.7
2014-Oct-19 02:15 343 2 gusting 2 16.7
2014-Oct-19 02:05 343 0 gusting 0 16.7
2014-Oct-19 01:55 343 1 gusting 1 16.7
2014-Oct-19 01:45 342 16.7
2014-Oct-19 01:35 343 16.7
2014-Oct-19 01:25 344 1 gusting 2 17.2
2014-Oct-19 01:15 345 0 gusting 0 17.2
2014-Oct-19 01:05 346 0 gusting 0 17.2
2014-Oct-19 00:55 341 2 gusting 2 17.2
2014-Oct-19 00:45 342 2 gusting 3 17.2
2014-Oct-19 00:35 341 2 gusting 2 17.8
2014-Oct-19 00:25 012 2 gusting 2 17.8
2014-Oct-19 00:15 344 3 gusting 3 17.2
2014-Oct-19 00:05 334 2 gusting 2 17.2
2014-Oct-18 23:55 337 2 gusting 2 17.2
2014-Oct-18 23:45 350 2 gusting 2 17.2
2014-Oct-18 23:35 345 2 gusting 2 17.8
2014-Oct-18 23:25 345 2 gusting 2 17.8
2014-Oct-18 23:15 338 1 gusting 2 17.8
2014-Oct-18 23:05 355 2 gusting 2 17.8
2014-Oct-18 22:55 341 2 gusting 2 17.2
2014-Oct-18 22:45 345 2 gusting 3 17.8
2014-Oct-18 22:35 360 2 gusting 2 17.8
2014-Oct-18 22:25 015 2 gusting 2 17.8
2014-Oct-18 22:15 005 1 gusting 1 17.8
2014-Oct-18 22:05 346 2 gusting 2 17.8